Time;durP1;ratioP1;P1;durP2;ratioP2;P2;SDS_P1;SDS_P2;PMS_P1;PMS_P2;Temp;Humidity;BMP_temperature;BMP_pressure;BME280_temperature;BME280_humidity;BME280_pressure;Samples;Min_cycle;Max_cycle;Signal;HPM_P1;HPM_P2
2021/12/14 00:01:03;;;;;;;;;;;2.30;99.90;;;;;;5052831;28;19958;-74
2021/12/14 00:03:31;;;;;;;;;;;2.20;99.90;;;;;;5053444;28;19905;-74
2021/12/14 00:05:56;;;;;;;;;;;2.10;99.90;;;;;;5052354;28;19998;-74
2021/12/14 00:08:25;;;;;;;;;;;2.00;99.90;;;;;;5053004;28;19956;-74
2021/12/14 00:11:33;;;;;;;;;;;2.10;99.90;;;;;;5053216;28;19909;-74
2021/12/14 00:13:56;;;;;;;;;;;2.10;99.90;;;;;;5052712;28;20054;-74
2021/12/14 00:16:22;;;;;;;;;;;2.00;99.90;;;;;;5052858;28;19911;-75
2021/12/14 00:18:48;;;;;;;;;;;2.10;99.90;;;;;;5053439;28;19995;-74
2021/12/14 00:21:19;;;;;;;;;;;2.10;99.90;;;;;;5051903;28;19919;-74
2021/12/14 00:26:30;;;;;;;;;;;2.10;99.90;;;;;;5052744;28;19911;-74
2021/12/14 00:28:56;;;;;;;;;;;2.20;99.90;;;;;;5052566;28;19904;-74
2021/12/14 00:31:21;;;;;;;;;;;2.20;99.90;;;;;;5052407;28;19909;-74
2021/12/14 00:33:53;;;;;;;;;;;2.10;99.90;;;;;;5052912;28;19905;-74
2021/12/14 00:36:18;;;;;;;;;;;2.00;99.90;;;;;;5051806;28;20496;-73
2021/12/14 00:38:45;;;;;;;;;;;1.90;99.90;;;;;;5052588;28;19904;-73
2021/12/14 00:41:13;;;;;;;;;;;1.90;99.90;;;;;;5052037;28;19959;-74
2021/12/14 00:43:39;;;;;;;;;;;1.90;99.90;;;;;;5052437;28;19911;-73
2021/12/14 00:46:05;;;;;;;;;;;2.00;99.90;;;;;;5052322;28;20322;-73
2021/12/14 00:48:31;;;;;;;;;;;2.00;99.90;;;;;;5052647;28;19905;-73
2021/12/14 00:50:58;;;;;;;;;;;1.90;99.90;;;;;;5052616;28;19995;-74
2021/12/14 00:53:24;;;;;;;;;;;1.90;99.90;;;;;;5052180;28;20407;-74
2021/12/14 00:55:50;;;;;;;;;;;1.90;99.90;;;;;;5051336;28;19995;-74
2021/12/14 00:58:17;;;;;;;;;;;1.90;99.90;;;;;;5056315;28;20259;-74
2021/12/14 01:00:45;;;;;;;;;;;1.80;99.90;;;;;;5059134;28;19908;-74
2021/12/14 01:03:11;;;;;;;;;;;1.70;99.90;;;;;;5058831;28;19909;-74
2021/12/14 01:05:39;;;;;;;;;;;1.70;99.90;;;;;;5059027;28;19923;-74
2021/12/14 01:08:08;;;;;;;;;;;1.70;99.90;;;;;;5058658;28;19904;-75
2021/12/14 01:10:37;;;;;;;;;;;1.60;99.90;;;;;;5057837;28;19905;-75
2021/12/14 01:13:07;;;;;;;;;;;1.60;99.90;;;;;;5058512;28;19905;-75
2021/12/14 01:15:50;;;;;;;;;;;1.70;99.90;;;;;;5059574;28;19905;-73
2021/12/14 01:18:29;;;;;;;;;;;1.70;99.90;;;;;;5058456;28;19905;-73
2021/12/14 01:21:00;;;;;;;;;;;1.70;99.90;;;;;;5058924;28;19905;-73
2021/12/14 01:23:33;;;;;;;;;;;1.80;99.90;;;;;;5058835;28;19904;-73
2021/12/14 01:26:03;;;;;;;;;;;1.80;99.90;;;;;;5059061;28;19976;-74
2021/12/14 01:28:31;;;;;;;;;;;1.80;99.90;;;;;;5059147;28;20406;-73
2021/12/14 01:31:28;;;;;;;;;;;1.80;99.90;;;;;;5058846;28;19913;-74
2021/12/14 01:33:55;;;;;;;;;;;1.80;99.90;;;;;;5058965;28;19905;-74
2021/12/14 01:36:26;;;;;;;;;;;1.70;99.90;;;;;;5057851;28;19904;-74
2021/12/14 01:41:55;;;;;;;;;;;1.70;99.90;;;;;;5068290;28;19966;-74
2021/12/14 01:44:21;;;;;;;;;;;1.80;99.90;;;;;;5058304;28;20617;-74
2021/12/14 01:46:52;;;;;;;;;;;1.80;99.90;;;;;;5059083;28;20292;-74
2021/12/14 01:49:17;;;;;;;;;;;1.80;99.90;;;;;;5058116;28;19905;-74
2021/12/14 01:51:45;;;;;;;;;;;1.80;99.90;;;;;;5059134;28;19974;-74
2021/12/14 01:54:12;;;;;;;;;;;1.70;99.90;;;;;;5057950;28;20015;-74
2021/12/14 01:56:38;;;;;;;;;;;1.70;99.90;;;;;;5058870;28;20275;-74
2021/12/14 01:59:12;;;;;;;;;;;1.70;99.90;;;;;;5057327;28;20011;-75
2021/12/14 02:01:47;;;;;;;;;;;1.70;99.90;;;;;;5058683;28;19912;-74
2021/12/14 02:04:15;;;;;;;;;;;1.60;99.90;;;;;;5058095;28;19905;-75
2021/12/14 02:06:43;;;;;;;;;;;1.60;99.90;;;;;;5058248;28;19920;-73
2021/12/14 02:09:16;;;;;;;;;;;1.50;99.90;;;;;;5055141;28;19962;-74
2021/12/14 02:11:44;;;;;;;;;;;1.50;99.90;;;;;;5055386;28;19954;-74
2021/12/14 02:14:09;;;;;;;;;;;1.50;99.90;;;;;;5054819;28;19951;-74
2021/12/14 02:16:37;;;;;;;;;;;1.50;99.90;;;;;;5055419;28;20302;-74
2021/12/14 02:19:04;;;;;;;;;;;1.50;99.90;;;;;;5055312;28;19904;-74
2021/12/14 02:21:31;;;;;;;;;;;1.60;99.90;;;;;;5054519;28;20031;-73
2021/12/14 02:23:58;;;;;;;;;;;1.60;99.90;;;;;;5054884;28;19905;-74
2021/12/14 02:26:25;;;;;;;;;;;1.70;99.90;;;;;;5054596;28;19904;-73
2021/12/14 02:28:51;;;;;;;;;;;1.80;99.90;;;;;;5070671;28;19909;-74
2021/12/14 02:31:18;;;;;;;;;;;1.80;99.90;;;;;;5054314;28;19955;-73
2021/12/14 02:33:46;;;;;;;;;;;1.80;99.90;;;;;;5055051;28;19959;-74
2021/12/14 02:36:17;;;;;;;;;;;1.80;99.90;;;;;;5054270;28;19915;-74
2021/12/14 02:38:44;;;;;;;;;;;1.70;99.90;;;;;;5055169;28;19946;-73
2021/12/14 02:41:10;;;;;;;;;;;1.60;99.90;;;;;;5053993;28;20370;-74
2021/12/14 02:43:49;;;;;;;;;;;1.60;99.90;;;;;;5054694;28;19904;-74
2021/12/14 02:46:29;;;;;;;;;;;1.60;99.90;;;;;;5053966;28;19905;-73
2021/12/14 02:48:56;;;;;;;;;;;1.60;99.90;;;;;;5054487;28;20323;-74
2021/12/14 02:51:33;;;;;;;;;;;1.60;99.90;;;;;;5053747;28;19981;-73
2021/12/14 02:54:02;;;;;;;;;;;1.70;99.90;;;;;;5055010;28;20004;-74
2021/12/14 02:56:29;;;;;;;;;;;1.70;99.90;;;;;;5053793;28;19924;-74
2021/12/14 02:58:56;;;;;;;;;;;1.60;99.90;;;;;;5054426;28;20374;-74
2021/12/14 03:01:22;;;;;;;;;;;1.60;99.90;;;;;;5053579;28;20023;-74
2021/12/14 03:03:47;;;;;;;;;;;1.50;99.90;;;;;;5054518;28;19959;-74
2021/12/14 03:06:19;;;;;;;;;;;1.40;99.90;;;;;;5053359;28;20020;-75
2021/12/14 03:08:56;;;;;;;;;;;1.30;99.90;;;;;;5054406;28;19904;-74
2021/12/14 03:11:22;;;;;;;;;;;1.30;99.90;;;;;;5053803;28;19955;-75
2021/12/14 03:13:50;;;;;;;;;;;1.30;99.90;;;;;;5054302;28;19905;-74
2021/12/14 03:16:17;;;;;;;;;;;1.40;99.90;;;;;;5053544;28;19907;-75
2021/12/14 03:18:44;;;;;;;;;;;1.40;99.90;;;;;;5069348;28;19911;-74
2021/12/14 03:21:15;;;;;;;;;;;1.40;99.90;;;;;;5053260;28;19958;-74
2021/12/14 03:23:40;;;;;;;;;;;1.40;99.90;;;;;;5054159;28;19904;-74
2021/12/14 03:26:07;;;;;;;;;;;1.50;99.90;;;;;;5053905;28;19912;-74
2021/12/14 03:28:34;;;;;;;;;;;1.50;99.90;;;;;;5053483;28;19905;-73
2021/12/14 03:31:03;;;;;;;;;;;1.50;99.90;;;;;;5059192;28;20381;-74
2021/12/14 03:33:31;;;;;;;;;;;1.60;99.90;;;;;;5071202;28;20091;-74
2021/12/14 03:36:07;;;;;;;;;;;1.60;99.90;;;;;;5055743;28;20007;-74
2021/12/14 03:38:39;;;;;;;;;;;1.60;99.90;;;;;;5059391;28;19911;-73
2021/12/14 03:41:11;;;;;;;;;;;1.60;99.90;;;;;;5052736;28;19920;-75
2021/12/14 03:43:39;;;;;;;;;;;1.60;99.90;;;;;;5053362;28;19905;-74
2021/12/14 03:46:06;;;;;;;;;;;1.50;99.90;;;;;;5053551;28;19905;-74
2021/12/14 03:48:32;;;;;;;;;;;1.40;99.90;;;;;;5052535;28;19911;-74
2021/12/14 03:50:59;;;;;;;;;;;1.40;99.90;;;;;;5052013;28;19949;-74
2021/12/14 03:53:25;;;;;;;;;;;1.30;99.90;;;;;;5052888;28;20392;-74
2021/12/14 03:55:53;;;;;;;;;;;1.30;99.90;;;;;;5053063;28;19991;-74
2021/12/14 03:58:21;;;;;;;;;;;1.20;99.90;;;;;;5052793;28;19927;-74
2021/12/14 04:00:49;;;;;;;;;;;1.30;99.90;;;;;;5053332;28;19905;-74
2021/12/14 04:03:16;;;;;;;;;;;1.30;99.90;;;;;;5052817;28;19904;-74
2021/12/14 04:05:46;;;;;;;;;;;1.40;99.90;;;;;;5053030;28;19920;-74
2021/12/14 04:08:13;;;;;;;;;;;1.40;99.90;;;;;;5052966;28;19919;-74
2021/12/14 04:10:40;;;;;;;;;;;1.40;99.90;;;;;;5052754;28;19951;-74
2021/12/14 04:13:06;;;;;;;;;;;1.40;99.90;;;;;;5053214;28;19987;-74
2021/12/14 04:15:31;;;;;;;;;;;1.30;99.90;;;;;;5052340;28;19948;-74
2021/12/14 04:17:57;;;;;;;;;;;1.20;99.90;;;;;;5052944;28;19951;-74
2021/12/14 04:20:25;;;;;;;;;;;1.10;99.90;;;;;;5052458;28;19916;-74
2021/12/14 04:22:51;;;;;;;;;;;1.10;99.90;;;;;;5053016;28;20082;-74
2021/12/14 04:25:18;;;;;;;;;;;1.20;99.90;;;;;;5050902;28;19908;-73
2021/12/14 04:27:45;;;;;;;;;;;1.10;99.90;;;;;;5052870;28;19996;-74
2021/12/14 04:30:12;;;;;;;;;;;1.10;99.90;;;;;;5052829;28;19904;-74
2021/12/14 04:32:38;;;;;;;;;;;1.10;99.90;;;;;;5051696;28;19905;-74
2021/12/14 04:35:04;;;;;;;;;;;1.20;99.90;;;;;;5052927;28;19912;-74
2021/12/14 04:37:30;;;;;;;;;;;1.20;99.90;;;;;;5050936;28;20410;-74
2021/12/14 04:54:00;;;;;;;;;;;1.20;99.90;;;;;;5052357;28;19951;-73
2021/12/14 04:56:32;;;;;;;;;;;1.20;99.90;;;;;;5051661;28;20359;-74
2021/12/14 04:59:09;;;;;;;;;;;1.30;99.90;;;;;;5052515;28;20378;-74
2021/12/14 05:01:37;;;;;;;;;;;1.40;99.90;;;;;;5051724;28;19952;-74
2021/12/14 05:04:05;;;;;;;;;;;1.50;99.90;;;;;;5052305;28;20271;-74
2021/12/14 05:06:47;;;;;;;;;;;1.50;99.90;;;;;;5051881;28;20371;-75
2021/12/14 05:09:24;;;;;;;;;;;1.50;99.90;;;;;;5052103;28;20270;-74
2021/12/14 05:11:53;;;;;;;;;;;1.60;99.90;;;;;;5052160;28;20355;-74
2021/12/14 05:14:23;;;;;;;;;;;1.50;99.90;;;;;;5052281;28;20267;-74
2021/12/14 05:16:53;;;;;;;;;;;1.60;99.90;;;;;;5068013;28;19904;-74
2021/12/14 05:19:22;;;;;;;;;;;1.60;99.90;;;;;;5051555;28;19908;-74
2021/12/14 05:21:50;;;;;;;;;;;1.60;99.90;;;;;;5051999;28;19913;-74
2021/12/14 05:24:17;;;;;;;;;;;1.70;99.90;;;;;;5052385;28;19950;-74
2021/12/14 05:26:43;;;;;;;;;;;1.70;99.90;;;;;;5051608;28;19905;-75
2021/12/14 05:29:10;;;;;;;;;;;1.70;99.90;;;;;;5052032;28;19912;-75
2021/12/14 05:31:47;;;;;;;;;;;1.80;99.90;;;;;;5051863;28;20005;-74
2021/12/14 05:34:13;;;;;;;;;;;2.00;99.90;;;;;;5052135;28;19911;-75
2021/12/14 05:36:39;;;;;;;;;;;2.20;99.90;;;;;;5051674;28;19983;-75
2021/12/14 05:39:45;;;;;;;;;;;2.60;99.90;;;;;;5052073;28;19912;-74
2021/12/14 05:44:44;;;;;;;;;;;3.50;99.90;;;;;;5054026;28;19927;-75
2021/12/14 05:47:13;;;;;;;;;;;3.80;99.90;;;;;;5056094;28;19956;-75
2021/12/14 05:49:40;;;;;;;;;;;4.10;99.90;;;;;;5054679;28;20457;-75
2021/12/14 05:52:07;;;;;;;;;;;4.30;99.90;;;;;;5055847;28;19904;-75
2021/12/14 05:54:33;;;;;;;;;;;4.60;99.90;;;;;;5054856;28;19959;-75
2021/12/14 05:57:00;;;;;;;;;;;4.80;99.90;;;;;;5055855;28;19909;-75
2021/12/14 05:59:28;;;;;;;;;;;4.90;99.90;;;;;;5055098;28;19911;-75
2021/12/14 06:01:54;;;;;;;;;;;5.10;99.90;;;;;;5055270;28;19913;-74
2021/12/14 06:04:20;;;;;;;;;;;5.10;99.90;;;;;;5055244;28;20321;-75
2021/12/14 06:06:49;;;;;;;;;;;5.30;99.90;;;;;;5055059;28;19916;-74
2021/12/14 06:09:18;;;;;;;;;;;5.40;99.90;;;;;;5055180;28;19963;-75
2021/12/14 06:11:45;;;;;;;;;;;5.40;99.90;;;;;;5054993;28;19904;-75
2021/12/14 06:14:12;;;;;;;;;;;5.50;99.90;;;;;;5055503;28;19999;-75
2021/12/14 06:16:38;;;;;;;;;;;5.60;99.90;;;;;;5054546;28;19912;-75
2021/12/14 06:19:15;;;;;;;;;;;5.50;99.90;;;;;;5055549;28;19905;-75
2021/12/14 06:21:41;;;;;;;;;;;5.50;99.90;;;;;;5054470;28;19908;-75
2021/12/14 06:24:08;;;;;;;;;;;5.50;99.90;;;;;;5055235;28;19911;-75
2021/12/14 06:26:35;;;;;;;;;;;5.50;99.90;;;;;;5053365;28;19904;-75
2021/12/14 06:29:08;;;;;;;;;;;5.60;99.90;;;;;;5054817;28;20420;-75
2021/12/14 06:31:34;;;;;;;;;;;5.60;99.90;;;;;;5054412;28;19904;-75
2021/12/14 06:34:11;;;;;;;;;;;5.60;99.90;;;;;;5053249;28;20004;-75
2021/12/14 06:37:04;;;;;;;;;;;5.60;99.90;;;;;;5054671;28;19999;-75
2021/12/14 06:39:30;;;;;;;;;;;5.60;99.90;;;;;;5054046;28;19909;-75
2021/12/14 06:42:03;;;;;;;;;;;5.60;99.90;;;;;;5054867;28;19966;-75
2021/12/14 06:44:29;;;;;;;;;;;5.70;99.90;;;;;;5054073;28;19950;-75
2021/12/14 06:46:54;;;;;;;;;;;5.70;99.90;;;;;;5054988;28;20305;-75
2021/12/14 06:49:20;;;;;;;;;;;5.60;99.90;;;;;;5054790;28;19943;-75
2021/12/14 06:51:48;;;;;;;;;;;5.70;99.90;;;;;;5069761;28;19905;-75
2021/12/14 06:54:18;;;;;;;;;;;5.70;99.90;;;;;;5054650;28;19958;-75
2021/12/14 06:56:47;;;;;;;;;;;5.60;99.90;;;;;;5071569;28;19932;-74
2021/12/14 06:59:14;;;;;;;;;;;5.60;99.90;;;;;;5071430;28;20301;-75
2021/12/14 07:01:42;;;;;;;;;;;5.60;99.90;;;;;;5053730;28;19919;-75
2021/12/14 07:04:09;;;;;;;;;;;5.50;99.90;;;;;;5054364;28;19905;-75
2021/12/14 07:06:36;;;;;;;;;;;5.50;99.90;;;;;;5053540;28;19963;-74
2021/12/14 07:09:04;;;;;;;;;;;5.50;99.90;;;;;;5054233;28;20019;-74
2021/12/14 07:11:30;;;;;;;;;;;5.50;99.90;;;;;;5052429;28;19912;-75
2021/12/14 07:13:57;;;;;;;;;;;5.40;99.90;;;;;;5053976;28;19909;-75
2021/12/14 07:16:31;;;;;;;;;;;5.40;99.90;;;;;;5052817;28;19964;-75
2021/12/14 07:18:59;;;;;;;;;;;5.40;99.90;;;;;;5053891;28;20348;-75
2021/12/14 07:21:36;;;;;;;;;;;5.30;99.90;;;;;;5053845;28;19913;-75
2021/12/14 07:24:25;;;;;;;;;;;5.20;99.90;;;;;;5053916;28;19944;-75
2021/12/14 07:27:10;;;;;;;;;;;5.20;99.90;;;;;;5052997;28;19938;-75
2021/12/14 07:29:36;;;;;;;;;;;5.20;99.90;;;;;;5053023;28;20019;-75
2021/12/14 07:32:01;;;;;;;;;;;5.20;99.90;;;;;;5053891;28;20359;-75
2021/12/14 07:34:27;;;;;;;;;;;5.10;99.90;;;;;;5053381;28;19904;-75
2021/12/14 07:36:53;;;;;;;;;;;5.10;99.90;;;;;;5052155;28;19970;-75
2021/12/14 07:39:19;;;;;;;;;;;5.00;99.90;;;;;;5053694;28;19904;-75
2021/12/14 07:41:45;;;;;;;;;;;4.90;99.90;;;;;;5052519;28;20344;-76
2021/12/14 07:44:11;;;;;;;;;;;4.90;99.90;;;;;;5052778;28;19943;-75
2021/12/14 07:46:41;;;;;;;;;;;4.80;99.90;;;;;;5052904;28;19904;-75
2021/12/14 07:49:10;;;;;;;;;;;4.70;99.90;;;;;;5053510;28;20309;-75
2021/12/14 07:51:38;;;;;;;;;;;4.60;99.90;;;;;;5052652;28;19904;-74
2021/12/14 07:54:06;;;;;;;;;;;4.60;99.90;;;;;;5051924;28;20271;-74
2021/12/14 07:56:42;;;;;;;;;;;4.50;99.90;;;;;;5051497;28;19909;-74
2021/12/14 07:59:16;;;;;;;;;;;4.40;99.90;;;;;;5053291;28;19904;-74
2021/12/14 08:01:42;;;;;;;;;;;4.40;99.90;;;;;;5052560;28;20388;-75
2021/12/14 08:04:12;;;;;;;;;;;4.40;99.90;;;;;;5053109;28;19940;-75
2021/12/14 08:06:46;;;;;;;;;;;4.40;99.90;;;;;;5051871;28;19939;-74
2021/12/14 08:09:16;;;;;;;;;;;4.30;99.90;;;;;;5052895;28;20065;-74
2021/12/14 08:11:48;;;;;;;;;;;4.20;99.90;;;;;;5052682;28;19911;-75
2021/12/14 08:14:18;;;;;;;;;;;4.20;99.90;;;;;;5053201;28;19995;-75
2021/12/14 08:16:46;;;;;;;;;;;4.20;99.90;;;;;;5050911;28;19905;-74
2021/12/14 08:19:13;;;;;;;;;;;4.20;99.90;;;;;;5052718;28;20365;-74
2021/12/14 08:21:41;;;;;;;;;;;4.20;99.90;;;;;;5051778;28;19912;-75
2021/12/14 08:24:07;;;;;;;;;;;4.10;99.90;;;;;;5053040;28;19909;-75
2021/12/14 08:26:34;;;;;;;;;;;4.10;99.90;;;;;;5052440;28;20007;-74
2021/12/14 08:29:04;;;;;;;;;;;4.10;99.90;;;;;;5052481;28;20428;-74
2021/12/14 08:31:36;;;;;;;;;;;4.10;99.90;;;;;;5052607;28;20003;-73
2021/12/14 08:34:03;;;;;;;;;;;4.10;99.90;;;;;;5051614;28;20014;-75
2021/12/14 08:36:43;;;;;;;;;;;4.00;99.90;;;;;;5052937;28;20001;-74
2021/12/14 08:39:12;;;;;;;;;;;4.00;99.90;;;;;;5052707;28;19904;-74
2021/12/14 08:41:46;;;;;;;;;;;4.00;99.90;;;;;;5052004;28;19912;-74
2021/12/14 08:44:12;;;;;;;;;;;4.00;99.90;;;;;;5052672;28;19912;-74
2021/12/14 08:46:38;;;;;;;;;;;4.00;99.90;;;;;;5051444;28;19979;-74
2021/12/14 08:49:06;;;;;;;;;;;4.00;99.90;;;;;;5052418;28;19905;-75
2021/12/14 08:51:40;;;;;;;;;;;4.00;99.90;;;;;;5050663;28;20015;-75
2021/12/14 08:54:13;;;;;;;;;;;3.90;99.90;;;;;;5052488;28;19904;-74
2021/12/14 08:56:48;;;;;;;;;;;3.90;99.90;;;;;;5051678;28;20352;-74
2021/12/14 08:59:14;;;;;;;;;;;4.00;99.90;;;;;;5052427;28;20338;-74
2021/12/14 09:01:42;;;;;;;;;;;4.10;99.90;;;;;;5066863;28;19952;-74
2021/12/14 09:04:10;;;;;;;;;;;4.20;99.90;;;;;;5052579;28;19905;-73
2021/12/14 09:06:38;;;;;;;;;;;4.30;99.90;;;;;;5051611;28;19978;-75
2021/12/14 09:09:05;;;;;;;;;;;4.40;99.90;;;;;;5067783;28;19904;-75
2021/12/14 09:11:35;;;;;;;;;;;4.50;99.90;;;;;;5052182;28;20363;-75
2021/12/14 09:14:02;;;;;;;;;;;4.60;99.90;;;;;;5052219;28;19911;-75
2021/12/14 09:16:29;;;;;;;;;;;4.70;99.90;;;;;;5053830;28;19909;-74
2021/12/14 09:19:02;;;;;;;;;;;4.80;99.90;;;;;;5069293;28;19904;-75
2021/12/14 09:21:33;;;;;;;;;;;4.90;99.90;;;;;;5069409;28;19920;-75
2021/12/14 09:23:59;;;;;;;;;;;4.90;99.90;;;;;;5055532;28;19962;-75
2021/12/14 09:26:28;;;;;;;;;;;5.00;99.90;;;;;;5056552;28;19948;-75
2021/12/14 09:28:54;;;;;;;;;;;5.10;99.90;;;;;;5054471;28;19966;-75
2021/12/14 09:31:22;;;;;;;;;;;5.10;99.90;;;;;;5055950;28;19905;-76
2021/12/14 09:33:49;;;;;;;;;;;5.10;99.90;;;;;;5055216;28;19932;-75
2021/12/14 09:36:15;;;;;;;;;;;5.10;99.90;;;;;;5056281;28;20258;-74
2021/12/14 09:38:47;;;;;;;;;;;5.10;99.90;;;;;;5055084;28;20358;-74
2021/12/14 09:41:17;;;;;;;;;;;5.20;99.90;;;;;;5071539;28;19911;-74
2021/12/14 09:43:44;;;;;;;;;;;5.20;99.90;;;;;;5055232;28;19913;-75
2021/12/14 09:46:10;;;;;;;;;;;5.30;99.90;;;;;;5055804;28;19996;-76
2021/12/14 09:48:48;;;;;;;;;;;5.40;99.90;;;;;;5055947;28;20324;-75
2021/12/14 09:51:16;;;;;;;;;;;5.50;99.90;;;;;;5071104;28;20352;-75
2021/12/14 09:53:47;;;;;;;;;;;5.50;99.90;;;;;;5054878;28;20367;-74
2021/12/14 09:56:14;;;;;;;;;;;5.50;99.90;;;;;;5055528;28;19999;-75
2021/12/14 09:58:42;;;;;;;;;;;5.50;99.90;;;;;;5054914;28;20279;-75
2021/12/14 10:01:14;;;;;;;;;;;5.60;99.90;;;;;;5055814;28;19966;-75
2021/12/14 10:03:40;;;;;;;;;;;5.80;99.90;;;;;;5055057;28;19904;-75
2021/12/14 10:06:08;;;;;;;;;;;5.90;99.90;;;;;;5055387;28;19978;-75
2021/12/14 10:08:36;;;;;;;;;;;6.00;99.90;;;;;;5055444;28;19908;-74
2021/12/14 10:11:07;;;;;;;;;;;6.10;99.90;;;;;;5054764;28;20351;-75
2021/12/14 10:13:35;;;;;;;;;;;6.10;99.90;;;;;;5055320;28;19919;-75
2021/12/14 10:16:01;;;;;;;;;;;6.30;99.90;;;;;;5054737;28;19901;-75
2021/12/14 10:18:29;;;;;;;;;;;6.30;99.90;;;;;;5055290;28;19905;-75
2021/12/14 10:20:59;;;;;;;;;;;6.30;99.90;;;;;;5054652;28;19905;-75
2021/12/14 10:23:25;;;;;;;;;;;6.50;99.90;;;;;;5055131;28;19913;-75
2021/12/14 10:25:51;;;;;;;;;;;6.50;99.90;;;;;;5054605;28;19927;-75
2021/12/14 10:28:17;;;;;;;;;;;6.60;99.90;;;;;;5070495;28;20004;-74
2021/12/14 10:30:45;;;;;;;;;;;6.60;99.90;;;;;;5052895;28;20003;-75
2021/12/14 10:33:11;;;;;;;;;;;6.60;99.90;;;;;;5054839;28;20314;-75
2021/12/14 10:35:45;;;;;;;;;;;6.70;99.90;;;;;;5055081;28;20308;-75
2021/12/14 10:43:27;;;;;;;;;;;6.80;99.90;;;;;;5054650;28;19928;-75
2021/12/14 10:45:58;;;;;;;;;;;6.80;99.90;;;;;;5054189;28;19905;-75
2021/12/14 10:48:31;;;;;;;;;;;6.90;99.90;;;;;;5054907;28;19911;-74
2021/12/14 10:50:58;;;;;;;;;;;7.00;99.90;;;;;;5053798;28;19909;-75
2021/12/14 10:53:25;;;;;;;;;;;7.10;99.90;;;;;;5054318;28;19992;-75
2021/12/14 10:55:53;;;;;;;;;;;7.30;99.90;;;;;;5053577;28;19908;-76
2021/12/14 10:58:20;;;;;;;;;;;7.30;99.90;;;;;;5054827;28;19905;-75
2021/12/14 11:00:48;;;;;;;;;;;7.40;99.90;;;;;;5053815;28;19904;-75
2021/12/14 11:03:17;;;;;;;;;;;7.50;99.90;;;;;;5054263;28;19971;-74
2021/12/14 11:05:45;;;;;;;;;;;7.50;99.90;;;;;;5053659;28;19924;-76
2021/12/14 11:08:21;;;;;;;;;;;7.70;99.90;;;;;;5054400;28;19909;-75
2021/12/14 11:10:47;;;;;;;;;;;7.90;99.90;;;;;;5059232;28;19916;-76
2021/12/14 11:13:13;;;;;;;;;;;7.80;99.90;;;;;;5067998;28;19904;-75
2021/12/14 11:15:42;;;;;;;;;;;7.90;99.90;;;;;;5067806;28;19912;-74
2021/12/14 11:18:13;;;;;;;;;;;8.00;99.90;;;;;;5054804;28;19940;-74
2021/12/14 11:20:50;;;;;;;;;;;8.10;99.90;;;;;;5054216;28;19924;-76
2021/12/14 11:23:19;;;;;;;;;;;8.10;99.90;;;;;;5054159;28;19956;-73
2021/12/14 11:25:45;;;;;;;;;;;8.30;99.90;;;;;;5053312;28;19911;-75
2021/12/14 11:28:13;;;;;;;;;;;8.20;99.90;;;;;;5053970;28;19904;-75
2021/12/14 11:30:43;;;;;;;;;;;8.20;99.90;;;;;;5053925;28;19912;-75
2021/12/14 11:33:20;;;;;;;;;;;8.30;99.90;;;;;;5052852;28;19912;-75
2021/12/14 11:35:55;;;;;;;;;;;8.40;99.90;;;;;;5053189;28;19944;-75
2021/12/14 11:38:32;;;;;;;;;;;8.50;99.90;;;;;;5053748;28;19905;-75
2021/12/14 11:41:04;;;;;;;;;;;8.50;99.90;;;;;;5052651;28;19909;-75
2021/12/14 11:43:30;;;;;;;;;;;8.50;99.90;;;;;;5053751;28;19912;-74
2021/12/14 11:45:57;;;;;;;;;;;8.50;99.90;;;;;;5052834;28;19905;-75
2021/12/14 11:48:27;;;;;;;;;;;8.50;99.90;;;;;;5053706;28;19908;-75
2021/12/14 11:50:53;;;;;;;;;;;8.50;99.90;;;;;;5052796;28;19905;-75
2021/12/14 11:53:20;;;;;;;;;;;8.50;99.90;;;;;;5053072;28;20309;-75
2021/12/14 11:55:49;;;;;;;;;;;8.60;99.90;;;;;;5051651;28;19905;-75
2021/12/14 11:58:19;;;;;;;;;;;8.60;99.90;;;;;;5053120;28;19905;-74
2021/12/14 12:00:51;;;;;;;;;;;8.70;99.90;;;;;;5053195;28;20271;-75
2021/12/14 12:03:34;;;;;;;;;;;8.70;99.90;;;;;;5053214;28;19913;-75
2021/12/14 12:06:08;;;;;;;;;;;8.80;99.90;;;;;;5051350;28;19916;-74
2021/12/14 12:11:22;;;;;;;;;;;8.80;99.90;;;;;;5053307;28;19912;-75
2021/12/14 12:13:47;;;;;;;;;;;8.70;99.90;;;;;;5052790;28;19905;-75
2021/12/14 12:16:21;;;;;;;;;;;8.80;99.90;;;;;;5052648;28;19912;-74
2021/12/14 12:19:05;;;;;;;;;;;8.80;99.90;;;;;;5052862;28;19999;-75
2021/12/14 12:21:32;;;;;;;;;;;8.80;99.90;;;;;;5052704;28;19913;-75
2021/12/14 12:23:58;;;;;;;;;;;8.80;99.90;;;;;;5052174;28;19958;-76
2021/12/14 12:26:28;;;;;;;;;;;8.80;99.90;;;;;;5052804;28;19987;-75
2021/12/14 12:29:00;;;;;;;;;;;8.90;99.90;;;;;;5052116;28;20279;-75
2021/12/14 12:31:26;;;;;;;;;;;8.90;99.90;;;;;;5052532;28;19981;-75
2021/12/14 12:33:54;;;;;;;;;;;8.80;99.90;;;;;;5051610;28;19919;-75
2021/12/14 12:36:24;;;;;;;;;;;8.90;99.90;;;;;;5052798;28;19958;-75
2021/12/14 12:38:55;;;;;;;;;;;8.80;99.90;;;;;;5052299;28;19912;-74
2021/12/14 12:41:26;;;;;;;;;;;8.90;99.90;;;;;;5052254;28;19904;-74
2021/12/14 12:44:01;;;;;;;;;;;8.90;99.90;;;;;;5051696;28;20429;-74
2021/12/14 12:46:30;;;;;;;;;;;8.90;99.90;;;;;;5052607;28;19905;-75
2021/12/14 12:49:01;;;;;;;;;;;8.90;99.90;;;;;;5052256;28;19908;-75
2021/12/14 12:51:34;;;;;;;;;;;8.90;99.90;;;;;;5052744;28;19944;-74
2021/12/14 12:54:10;;;;;;;;;;;9.10;99.90;;;;;;5051061;28;19905;-75
2021/12/14 12:56:38;;;;;;;;;;;9.00;99.90;;;;;;5052441;28;19909;-74
2021/12/14 12:59:06;;;;;;;;;;;9.00;99.90;;;;;;5051370;28;20367;-74
2021/12/14 13:01:32;;;;;;;;;;;9.10;99.90;;;;;;5052396;28;20023;-75
2021/12/14 13:03:57;;;;;;;;;;;9.10;99.90;;;;;;5052038;28;19946;-75
2021/12/14 13:06:24;;;;;;;;;;;9.00;99.90;;;;;;5051921;28;20321;-75
2021/12/14 13:08:57;;;;;;;;;;;9.10;99.90;;;;;;5067292;28;19960;-74
2021/12/14 13:11:29;;;;;;;;;;;9.10;99.90;;;;;;5051991;28;20003;-75
2021/12/14 13:14:05;;;;;;;;;;;9.10;99.90;;;;;;5051245;28;19920;-75
2021/12/14 13:16:31;;;;;;;;;;;9.00;99.90;;;;;;5066467;28;19931;-74
2021/12/14 13:18:58;;;;;;;;;;;9.00;99.90;;;;;;5050891;28;19904;-76
2021/12/14 13:21:35;;;;;;;;;;;9.00;99.90;;;;;;5051906;28;19913;-76
2021/12/14 13:24:19;;;;;;;;;;;8.90;99.90;;;;;;5051331;28;19911;-75
2021/12/14 13:26:51;;;;;;;;;;;8.90;99.90;;;;;;5051986;28;20006;-75
2021/12/14 13:29:16;;;;;;;;;;;8.90;99.90;;;;;;5051491;28;19916;-76
2021/12/14 13:31:45;;;;;;;;;;;8.90;99.90;;;;;;5051821;28;19905;-75
2021/12/14 13:34:21;;;;;;;;;;;8.90;99.90;;;;;;5051299;28;20143;-75
2021/12/14 13:36:47;;;;;;;;;;;8.90;99.90;;;;;;5051796;28;19943;-75
2021/12/14 13:39:13;;;;;;;;;;;9.00;99.90;;;;;;5051090;28;19901;-75
2021/12/14 13:41:57;;;;;;;;;;;8.90;99.90;;;;;;5051704;28;19956;-75
2021/12/14 13:44:23;;;;;;;;;;;9.00;99.90;;;;;;5051730;28;20003;-75
2021/12/14 13:46:49;;;;;;;;;;;8.90;99.90;;;;;;5051845;28;20003;-75
2021/12/14 13:49:14;;;;;;;;;;;9.00;99.90;;;;;;5051197;28;19904;-73
2021/12/14 13:51:40;;;;;;;;;;;8.90;99.90;;;;;;5050707;28;20287;-75
2021/12/14 13:54:06;;;;;;;;;;;8.90;99.90;;;;;;5051456;28;19905;-75
2021/12/14 13:56:33;;;;;;;;;;;8.90;99.90;;;;;;5051655;28;19909;-74
2021/12/14 13:58:59;;;;;;;;;;;8.90;99.90;;;;;;5050665;28;19905;-73
2021/12/14 14:01:31;;;;;;;;;;;8.80;99.90;;;;;;5051534;28;20263;-75
2021/12/14 14:04:01;;;;;;;;;;;8.80;99.90;;;;;;5051250;28;19904;-74
2021/12/14 14:06:26;;;;;;;;;;;8.80;99.90;;;;;;5054829;28;19948;-75
2021/12/14 14:08:52;;;;;;;;;;;8.80;99.90;;;;;;5054881;28;19963;-75
2021/12/14 14:11:43;;;;;;;;;;;8.80;99.90;;;;;;5054364;28;19904;-75
2021/12/14 14:14:19;;;;;;;;;;;8.80;99.90;;;;;;5054013;28;19947;-75
2021/12/14 14:16:50;;;;;;;;;;;8.70;99.90;;;;;;5054970;28;19912;-75
2021/12/14 14:19:18;;;;;;;;;;;8.70;99.90;;;;;;5054235;28;19912;-74
2021/12/14 14:21:52;;;;;;;;;;;8.70;99.90;;;;;;5054929;28;20264;-74
2021/12/14 14:24:21;;;;;;;;;;;8.60;99.90;;;;;;5054338;28;19904;-75
2021/12/14 14:26:46;;;;;;;;;;;8.60;99.90;;;;;;5054979;28;19951;-74
2021/12/14 14:29:16;;;;;;;;;;;8.60;99.90;;;;;;5054023;28;19912;-75
2021/12/14 14:31:48;;;;;;;;;;;8.60;99.90;;;;;;5054126;28;20493;-75
2021/12/14 14:34:22;;;;;;;;;;;8.60;99.90;;;;;;5053725;28;19901;-75
2021/12/14 14:36:59;;;;;;;;;;;8.60;99.90;;;;;;5054778;28;19912;-75
2021/12/14 14:39:25;;;;;;;;;;;8.60;99.90;;;;;;5054907;28;19911;-75
2021/12/14 14:41:56;;;;;;;;;;;8.60;99.90;;;;;;5054639;28;20272;-75
2021/12/14 14:44:23;;;;;;;;;;;8.50;99.90;;;;;;5054513;28;19908;-74
2021/12/14 14:46:56;;;;;;;;;;;8.60;99.90;;;;;;5054610;28;19905;-75
2021/12/14 14:49:45;;;;;;;;;;;8.50;99.90;;;;;;5054223;28;19915;-75
2021/12/14 14:52:11;;;;;;;;;;;8.50;99.90;;;;;;5053709;28;19947;-75
2021/12/14 14:54:41;;;;;;;;;;;8.40;99.90;;;;;;5054479;28;20003;-75
2021/12/14 14:57:06;;;;;;;;;;;8.40;99.90;;;;;;5053263;28;19912;-75
2021/12/14 14:59:36;;;;;;;;;;;8.50;99.90;;;;;;5054435;28;19905;-75
2021/12/14 15:02:02;;;;;;;;;;;8.50;99.90;;;;;;5058833;28;19916;-75
2021/12/14 15:04:28;;;;;;;;;;;8.50;99.90;;;;;;5052936;28;19905;-75
2021/12/14 15:06:54;;;;;;;;;;;8.50;99.90;;;;;;5053754;28;20321;-75
2021/12/14 15:09:26;;;;;;;;;;;8.50;99.90;;;;;;5052195;28;19912;-74
2021/12/14 15:11:56;;;;;;;;;;;8.50;99.90;;;;;;5054243;28;19943;-75
2021/12/14 15:14:32;;;;;;;;;;;8.40;99.90;;;;;;5053775;28;19909;-74